createdAt,value
2023-02-12T08:44:02.280Z,98671.03
2023-02-12T08:46:06.279Z,98670.53
2023-02-12T08:48:09.118Z,98666.88
2023-02-12T08:50:12.330Z,98668.03
2023-02-12T08:52:15.370Z,98661.66
2023-02-12T08:54:20.122Z,98668.16
2023-02-12T08:56:24.002Z,98660.94
2023-02-12T08:58:26.750Z,98662.53
2023-02-12T09:00:31.059Z,98662.84
2023-02-12T09:02:33.894Z,98657.06
2023-02-12T09:04:36.950Z,98658.47
2023-02-12T09:06:39.848Z,98661.84
2023-02-12T09:08:43.376Z,98651.03
2023-02-12T09:10:46.843Z,98656.03
2023-02-12T09:12:49.640Z,98657.69
2023-02-12T09:14:52.491Z,98651.47
2023-02-12T09:16:58.166Z,98652.91
2023-02-12T09:19:01.460Z,98648.88
2023-02-12T09:21:06.539Z,98652.34
2023-02-12T09:23:09.948Z,98652.34
2023-02-12T09:25:12.840Z,98656.66
2023-02-12T09:27:15.632Z,98651.16
2023-02-12T09:29:18.460Z,98655.03
2023-02-12T09:31:26.346Z,98655.59
2023-02-12T09:33:30.604Z,98653.56
2023-02-12T09:35:35.461Z,98648.16
2023-02-12T09:37:38.237Z,98647.88
2023-02-12T09:39:40.973Z,98644.28
2023-02-12T09:42:25.490Z,98657.44
2023-02-12T09:44:33.579Z,98653.84
2023-02-12T09:46:43.943Z,98652.88
2023-02-12T09:48:58.493Z,98658.97
2023-02-12T09:51:07.655Z,98660.09
2023-02-12T09:53:14.278Z,98656.47
2023-02-12T09:55:19.312Z,98659.81
2023-02-12T09:57:26.390Z,98663.19
2023-02-12T09:59:34.502Z,98662.91
2023-02-12T10:01:37.308Z,98651.41
2023-02-12T10:03:40.393Z,98659.03
2023-02-12T10:05:49.186Z,98650.97
2023-02-12T10:08:11.345Z,98653.47
2023-02-12T10:10:29.436Z,98654.34
2023-02-12T10:12:40.386Z,98646.53
2023-02-12T10:14:58.782Z,98648.34
2023-02-12T10:17:06.999Z,98644.75
2023-02-12T10:19:33.179Z,98646.16
2023-02-12T10:21:49.680Z,98653.25
2023-02-12T10:24:18.507Z,98656.56
2023-02-12T10:26:25.948Z,98650.22
2023-02-12T10:28:34.306Z,98647.44
2023-02-12T10:30:44.115Z,98645.50
2023-02-12T10:32:49.156Z,98650.78
2023-02-12T10:34:52.550Z,98648.88
2023-02-12T10:37:04.098Z,98656.63
2023-02-12T10:39:13.882Z,98646.94
2023-02-12T10:41:17.944Z,98659.13
2023-02-12T10:43:20.689Z,98646.66
2023-02-12T10:45:28.406Z,98645.97
2023-02-12T10:47:31.353Z,98644.16
2023-02-12T10:49:34.489Z,98644.84
2023-02-12T10:52:01.490Z,98644.16
2023-02-12T10:54:34.567Z,98630.69
2023-02-12T10:56:38.229Z,98637.78
2023-02-12T10:58:42.874Z,98635.28
2023-02-12T11:00:45.853Z,98635.00
2023-02-12T11:03:02.890Z,98626.69
2023-02-12T11:05:24.874Z,98619.22
2023-02-12T11:07:29.003Z,98614.63
2023-02-12T11:09:40.643Z,98624.47
2023-02-12T11:11:43.601Z,98619.22
2023-02-12T11:13:54.546Z,98607.00
2023-02-12T11:15:57.595Z,98601.72
2023-02-12T11:18:04.507Z,98593.69
2023-02-12T11:20:22.426Z,98590.06
2023-02-12T11:22:25.256Z,98588.16
2023-02-12T11:24:34.441Z,98585.38
2023-02-12T11:26:37.296Z,98580.78
2023-02-12T11:28:40.598Z,98577.88
2023-02-12T11:30:56.736Z,98581.19
2023-02-12T11:33:22.281Z,98581.91
2023-02-12T11:35:28.362Z,98577.19
2023-02-12T11:37:36.389Z,98582.63
2023-02-12T11:39:41.646Z,98572.06
2023-02-12T11:41:44.814Z,98571.91
2023-02-12T11:43:47.712Z,98569.16
2023-02-12T11:45:56.167Z,98561.22
2023-02-12T11:47:59.688Z,98563.44
2023-02-12T11:50:06.859Z,98565.25
2023-02-12T11:52:21.244Z,98559.72
2023-02-12T11:54:26.995Z,98548.19
2023-02-12T11:56:42.918Z,98549.03
2023-02-12T11:58:47.147Z,98553.88
2023-02-12T12:00:55.820Z,98552.91
2023-02-12T12:03:03.622Z,98554.56
2023-02-12T12:05:12.908Z,98546.66
2023-02-12T12:07:21.987Z,98546.78
2023-02-12T12:09:27.888Z,98549.28
2023-02-12T12:11:39.425Z,98545.66
2023-02-12T12:13:49.390Z,98531.50
2023-02-12T12:16:18.021Z,98531.50
2023-02-12T12:18:45.006Z,98528.47
2023-02-12T12:20:53.253Z,98524.16
2023-02-12T12:23:01.075Z,98527.34
2023-02-12T12:25:13.795Z,98525.38
2023-02-12T12:27:47.156Z,98523.44
2023-02-12T12:29:56.817Z,98524.84
2023-02-12T12:32:02.709Z,98521.09
2023-02-12T12:34:10.239Z,98520.94
2023-02-12T12:36:44.726Z,98513.69
2023-02-12T12:38:56.999Z,98521.22
2023-02-12T12:41:09.583Z,98517.03
2023-02-12T12:43:24.577Z,98512.34
2023-02-12T12:45:46.228Z,98509.00
2023-02-12T12:48:07.309Z,98508.44
2023-02-12T12:50:29.698Z,98508.19
2023-02-12T12:53:01.632Z,98504.41
2023-02-12T12:55:24.929Z,98509.41
2023-02-12T12:57:41.213Z,98508.44
2023-02-12T13:00:01.161Z,98508.16
2023-02-12T13:02:36.494Z,98497.47
2023-02-12T13:05:15.105Z,98492.03
2023-02-12T13:07:47.516Z,98496.19
2023-02-12T13:10:01.845Z,98495.34
2023-02-12T13:12:29.252Z,98496.72
2023-02-12T13:14:44.064Z,98491.19
2023-02-12T13:16:54.888Z,98490.22
2023-02-12T13:19:08.340Z,98493.69
2023-02-12T13:21:18.382Z,98490.88
2023-02-12T13:23:30.898Z,98487.28
2023-02-12T13:25:39.768Z,98484.63
2023-02-12T13:27:45.068Z,98482.00
2023-02-12T13:29:50.356Z,98481.00
2023-02-12T13:31:59.226Z,98478.06
2023-02-12T13:34:05.817Z,98478.78
2023-02-12T13:36:11.966Z,98476.16
2023-02-12T13:38:20.865Z,98472.53
2023-02-12T13:40:25.652Z,98470.56
2023-02-12T13:42:46.342Z,98469.59
2023-02-12T13:44:58.228Z,98468.09
2023-02-12T13:47:13.700Z,98468.63
2023-02-12T13:49:26.693Z,98465.00
2023-02-12T13:51:41.520Z,98465.81
2023-02-12T13:53:55.896Z,98477.22
2023-02-12T13:56:07.908Z,98464.00
2023-02-12T13:58:48.056Z,98469.44
2023-02-12T14:01:01.784Z,98459.03
2023-02-12T14:03:10.810Z,98461.53
2023-02-12T14:05:26.477Z,98467.63
2023-02-12T14:07:43.680Z,98455.56
2023-02-12T14:10:02.679Z,98460.53
2023-02-12T14:12:09.792Z,98466.66
2023-02-12T14:14:13.086Z,98466.34
2023-02-12T14:16:39.764Z,98472.50
2023-02-12T14:18:43.923Z,98467.75
2023-02-12T14:20:46.661Z,98470.09
2023-02-12T14:23:24.088Z,98469.09
2023-02-12T14:26:13.019Z,98468.13
2023-02-12T14:28:25.535Z,98468.13
2023-02-12T14:30:32.801Z,98469.09
2023-02-12T14:32:58.350Z,98467.16
2023-02-12T14:35:36.758Z,98463.41
2023-02-12T14:37:39.561Z,98460.75
2023-02-12T14:39:42.726Z,98463.41
2023-02-12T14:41:46.243Z,98466.56
2023-02-12T14:44:03.095Z,98473.53
2023-02-12T14:46:43.161Z,98468.91
2023-02-12T14:48:52.959Z,98469.91
2023-02-12T14:50:57.242Z,98478.50
2023-02-12T14:53:06.355Z,98476.53
2023-02-12T14:55:25.860Z,98471.97
2023-02-12T14:57:31.266Z,98471.81
2023-02-12T14:59:40.925Z,98475.13
2023-02-12T15:01:44.540Z,98477.63
2023-02-12T15:03:51.730Z,98472.03
2023-02-12T15:06:03.956Z,98473.16
2023-02-12T15:08:15.028Z,98471.50
2023-02-12T15:10:21.221Z,98476.66
2023-02-12T15:12:32.645Z,98466.91
2023-02-12T15:14:37.849Z,98472.03
2023-02-12T15:16:50.640Z,98478.97
2023-02-12T15:18:58.443Z,98468.41
2023-02-12T15:21:08.943Z,98477.31
2023-02-12T15:23:34.112Z,98479.97
2023-02-12T15:25:37.340Z,98475.97
2023-02-12T15:27:43.738Z,98479.75
2023-02-12T15:29:49.860Z,98476.13
2023-02-12T15:31:55.568Z,98477.09
2023-02-12T15:34:00.968Z,98474.31
2023-02-12T15:36:06.239Z,98475.13
2023-02-12T15:38:09.541Z,98475.13
2023-02-12T15:40:16.999Z,98473.31
2023-02-12T15:42:32.422Z,98472.19
2023-02-12T15:44:37.604Z,98481.78
2023-02-12T15:46:40.573Z,98485.41
2023-02-12T15:48:43.458Z,98482.91
2023-02-12T15:50:50.833Z,98480.25
2023-02-12T15:52:56.611Z,98487.22
2023-02-12T15:54:59.414Z,98488.03
2023-02-12T15:57:02.938Z,98479.28
2023-02-12T15:59:05.885Z,98486.06
2023-02-12T16:01:09.214Z,98487.88
2023-02-12T16:03:22.386Z,98491.34
2023-02-12T16:05:26.719Z,98488.59
2023-02-12T16:07:35.734Z,98487.88
2023-02-12T16:09:41.148Z,98490.69
2023-02-12T16:11:46.590Z,98486.38
2023-02-12T16:13:52.131Z,98483.75
2023-02-12T16:16:07.694Z,98495.28
2023-02-12T16:18:25.359Z,98481.56
2023-02-12T16:20:29.554Z,98488.50
2023-02-12T16:22:35.027Z,98492.25
2023-02-12T16:24:41.278Z,98499.34
2023-02-12T16:26:48.607Z,98489.06
2023-02-12T16:28:54.345Z,98489.06
2023-02-12T16:31:10.263Z,98492.00
2023-02-12T16:33:34.303Z,98492.31
2023-02-12T16:35:37.230Z,98488.00
2023-02-12T16:37:47.899Z,98491.63
2023-02-12T16:40:22.401Z,98498.84
2023-02-12T16:42:30.355Z,98498.97
2023-02-12T16:44:34.830Z,98495.81
2023-02-12T16:46:46.852Z,98497.78
2023-02-12T16:48:51.961Z,98494.31
2023-02-12T16:50:57.432Z,98503.19
2023-02-12T16:53:01.368Z,98502.50
2023-02-12T16:55:04.215Z,98500.69
2023-02-12T16:57:12.049Z,98493.06
2023-02-12T16:59:14.833Z,98500.16
2023-02-12T17:01:24.500Z,98505.44
2023-02-12T17:03:27.417Z,98506.41
2023-02-12T17:05:30.262Z,98512.81
2023-02-12T17:07:33.172Z,98509.50
2023-02-12T17:09:35.901Z,98516.84
2023-02-12T17:11:38.629Z,98508.09
2023-02-12T17:13:43.189Z,98510.03
2023-02-12T17:15:50.759Z,98514.50
2023-02-12T17:17:53.602Z,98513.50
2023-02-12T17:19:56.364Z,98514.50
2023-02-12T17:21:59.220Z,98513.66
2023-02-12T17:24:01.905Z,98518.13
2023-02-12T17:26:07.360Z,98517.97
2023-02-12T17:28:10.230Z,98514.50
2023-02-12T17:30:18.615Z,98512.84
2023-02-12T17:32:24.389Z,98510.19
2023-02-12T17:34:28.724Z,98521.59
2023-02-12T17:36:33.046Z,98516.59
2023-02-12T17:38:36.177Z,98522.03
2023-02-12T17:40:40.487Z,98517.56
2023-02-12T17:42:43.343Z,98521.19
2023-02-12T17:44:46.356Z,98523.84
2023-02-12T17:46:50.511Z,98526.47
2023-02-12T17:48:53.388Z,98527.31
2023-02-12T17:50:58.231Z,98523.13
2023-02-12T17:53:01.369Z,98524.78
2023-02-12T17:55:05.735Z,98525.75
2023-02-12T17:57:08.532Z,98532.00
2023-02-12T17:59:11.517Z,98536.47
2023-02-12T18:01:16.108Z,98533.81
2023-02-12T18:03:20.273Z,98535.63
2023-02-12T18:05:23.252Z,98534.81
2023-02-12T18:07:26.143Z,98539.09
2023-02-12T18:09:28.928Z,98545.34
2023-02-12T18:11:33.004Z,98539.25
2023-02-12T18:13:35.913Z,98547.16
2023-02-12T18:15:40.918Z,98546.47
2023-02-12T18:17:44.059Z,98539.13
2023-02-12T18:19:48.682Z,98544.28
2023-02-12T18:21:51.415Z,98542.72
2023-02-12T18:23:54.891Z,98548.44
2023-02-12T18:25:57.784Z,98548.72
2023-02-12T18:28:01.258Z,98549.56
2023-02-12T18:30:04.181Z,98554.97
2023-02-12T18:32:07.401Z,98551.50
2023-02-12T18:34:10.514Z,98550.66
2023-02-12T18:36:17.505Z,98553.44
2023-02-12T18:38:20.338Z,98551.78
2023-02-12T18:40:23.160Z,98550.09
2023-02-12T18:42:26.109Z,98549.28
2023-02-12T18:44:29.016Z,98554.56
2023-02-12T18:46:32.628Z,98553.56
2023-02-12T18:48:35.757Z,98555.38
2023-02-12T18:50:39.621Z,98560.66
2023-02-12T18:52:43.711Z,98555.38
2023-02-12T18:54:46.452Z,98558.72
2023-02-12T18:56:52.717Z,98554.41
2023-02-12T18:58:57.142Z,98563.31
2023-02-12T19:01:00.283Z,98554.41
2023-02-12T19:03:03.206Z,98553.72
2023-02-12T19:05:06.392Z,98550.41
2023-02-12T19:07:09.120Z,98561.94
2023-02-12T19:09:18.841Z,98555.81
2023-02-12T19:11:22.826Z,98551.66
2023-02-12T19:13:25.636Z,98557.63
2023-02-12T19:15:28.719Z,98549.84
2023-02-12T19:17:31.486Z,98554.31
2023-02-12T19:19:34.264Z,98553.44
2023-02-12T19:21:37.220Z,98552.59
2023-02-12T19:23:41.650Z,98551.78
2023-02-12T19:25:45.880Z,98548.31
2023-02-12T19:27:49.101Z,98557.88
2023-02-12T19:29:51.876Z,98556.22
2023-02-12T19:31:55.069Z,98555.53
2023-02-12T19:34:00.609Z,98554.84
2023-02-12T19:36:03.541Z,98549.56
2023-02-12T19:38:06.271Z,98544.44
2023-02-12T19:40:09.794Z,98546.25
2023-02-12T19:42:14.819Z,98552.50
2023-02-12T19:44:19.862Z,98555.13
2023-02-12T19:46:23.332Z,98555.97
2023-02-12T19:48:26.081Z,98562.06
2023-02-12T19:50:28.819Z,98559.56
2023-02-12T19:52:31.743Z,98565.69
2023-02-12T19:54:34.883Z,98558.75
2023-02-12T19:56:38.176Z,98571.22
2023-02-12T19:58:43.158Z,98569.53
2023-02-12T20:00:45.983Z,98574.81
2023-02-12T20:02:48.782Z,98577.47
2023-02-12T20:04:51.578Z,98580.09
2023-02-12T20:06:54.875Z,98580.09
2023-02-12T20:08:57.821Z,98579.25
2023-02-12T20:11:00.558Z,98576.47
2023-02-12T20:13:03.369Z,98573.84
2023-02-12T20:15:08.227Z,98576.47
2023-02-12T20:17:11.314Z,98574.81
2023-02-12T20:19:16.542Z,98573.16
2023-02-12T20:21:22.377Z,98579.25
2023-02-12T20:23:25.794Z,98582.03
2023-02-12T20:25:28.641Z,98588.16
2023-02-12T20:27:31.424Z,98594.53
2023-02-12T20:29:34.205Z,98584.13
2023-02-12T20:31:39.052Z,98582.31
2023-02-12T20:33:42.928Z,98589.25
2023-02-12T20:35:45.940Z,98593.56
2023-02-12T20:37:48.651Z,98592.03
2023-02-12T20:39:51.375Z,98589.53
2023-02-12T20:41:54.279Z,98585.09
2023-02-12T20:44:01.330Z,98589.53
2023-02-12T20:46:07.741Z,98589.53
2023-02-12T20:48:11.898Z,98593.03
2023-02-12T20:50:14.678Z,98596.50
2023-02-12T20:52:17.565Z,98598.16
2023-02-12T20:54:20.795Z,98591.91
2023-02-12T20:56:26.554Z,98600.66
2023-02-12T20:58:29.685Z,98595.22
2023-02-12T21:00:32.508Z,98591.91
2023-02-12T21:02:35.319Z,98600.50
2023-02-12T21:04:39.523Z,98602.31
2023-02-12T21:06:42.982Z,98600.78
2023-02-12T21:08:46.236Z,98601.75
2023-02-12T21:10:48.956Z,98597.31
2023-02-12T21:12:51.786Z,98603.56
2023-02-12T21:14:54.579Z,98602.59
2023-02-12T21:16:57.713Z,98606.91
2023-02-12T21:19:01.076Z,98608.69
2023-02-12T21:21:08.633Z,98608.69
2023-02-12T21:23:11.397Z,98614.81
2023-02-12T21:25:14.131Z,98614.81
2023-02-12T21:27:16.854Z,98609.66
2023-02-12T21:29:20.015Z,98612.44
2023-02-12T21:31:24.998Z,98610.66
2023-02-12T21:33:27.834Z,98613.53
2023-02-12T21:35:30.543Z,98609.38
2023-02-12T21:37:34.648Z,98607.84
2023-02-12T21:39:37.465Z,98613.81
2023-02-12T21:41:42.361Z,98615.47
2023-02-12T21:43:47.252Z,98612.00
2023-02-12T21:45:53.384Z,98616.44
2023-02-12T21:47:56.227Z,98612.16
2023-02-12T21:49:59.033Z,98614.78
2023-02-12T21:52:04.590Z,98617.41
2023-02-12T21:54:12.595Z,98617.41
2023-02-12T21:56:15.957Z,98619.09
2023-02-12T21:58:18.961Z,98620.47
2023-02-12T22:00:22.276Z,98620.63
2023-02-12T22:02:25.147Z,98617.00
2023-02-12T22:04:28.206Z,98623.94
2023-02-12T22:06:30.982Z,98613.41
2023-02-12T22:08:34.604Z,98618.00
2023-02-12T22:10:38.762Z,98624.19
2023-02-12T22:12:41.500Z,98619.91
2023-02-12T22:14:44.211Z,98616.28
2023-02-12T22:16:47.665Z,98622.28
2023-02-12T22:18:55.277Z,98623.25
2023-02-12T22:21:01.561Z,98626.72
2023-02-12T22:23:04.335Z,98624.09
2023-02-12T22:25:07.527Z,98625.91
2023-02-12T22:27:11.593Z,98626.16
2023-02-12T22:29:16.426Z,98627.81
2023-02-12T22:31:22.645Z,98623.50
2023-02-12T22:33:25.635Z,98626.16
2023-02-12T22:35:28.658Z,98633.22
2023-02-12T22:37:31.544Z,98631.41
2023-02-12T22:39:34.310Z,98633.34
2023-02-12T22:41:37.878Z,98629.06
2023-02-12T22:43:43.024Z,98636.00
2023-02-12T22:45:45.683Z,98638.50
2023-02-12T22:47:48.461Z,98627.13
2023-02-12T22:49:51.338Z,98636.97
2023-02-12T22:51:54.349Z,98641.41
